createdAt,value
2022-09-30T00:02:30.282Z,24.00
2022-09-30T00:05:00.065Z,17.30
2022-09-30T00:07:28.961Z,18.30
2022-09-30T00:11:22.183Z,19.60
2022-09-30T00:32:31.128Z,19.70
2022-09-30T00:36:06.459Z,21.40
2022-09-30T00:38:35.435Z,20.00
2022-09-30T00:42:24.953Z,21.90
2022-09-30T00:46:15.193Z,21.50
2022-09-30T00:49:05.157Z,27.80
2022-09-30T00:51:50.535Z,20.80
2022-09-30T00:54:43.077Z,20.80
2022-09-30T00:57:14.695Z,24.60
2022-09-30T01:01:09.007Z,25.60
2022-09-30T01:03:55.070Z,23.70
2022-09-30T01:07:44.707Z,23.10
2022-09-30T01:10:33.810Z,23.70
2022-09-30T01:18:04.277Z,21.30
2022-09-30T01:22:07.790Z,26.10
2022-09-30T01:29:46.409Z,21.90
2022-09-30T01:33:06.728Z,21.00
2022-09-30T01:37:08.951Z,22.80
2022-09-30T01:40:10.919Z,17.80
2022-09-30T02:10:49.159Z,18.40
2022-09-30T02:13:41.437Z,20.80
2022-09-30T02:16:36.699Z,15.50
2022-09-30T02:20:51.018Z,17.60
2022-09-30T02:23:48.550Z,17.00
2022-09-30T02:26:43.626Z,17.40
2022-09-30T02:29:30.724Z,17.50
2022-09-30T02:32:16.645Z,20.70
2022-09-30T02:35:28.405Z,14.60
2022-09-30T02:38:25.605Z,23.40
2022-09-30T02:41:23.125Z,22.10
2022-09-30T02:44:01.344Z,21.30
2022-09-30T02:46:44.829Z,16.10
2022-09-30T02:49:40.908Z,18.60
2022-09-30T02:52:49.125Z,19.00
2022-09-30T02:55:46.435Z,18.40
2022-09-30T02:58:26.562Z,21.90
2022-09-30T03:01:00.257Z,18.10
2022-09-30T03:03:55.360Z,20.60
2022-09-30T03:06:25.705Z,25.50
2022-09-30T03:08:55.860Z,20.60
2022-09-30T03:11:28.357Z,20.60
2022-09-30T03:14:32.699Z,13.10
2022-09-30T03:17:28.658Z,17.00
2022-09-30T03:20:22.327Z,20.90
2022-09-30T03:23:09.458Z,21.20
2022-09-30T03:26:11.077Z,21.10
2022-09-30T03:29:34.995Z,18.20
2022-09-30T03:32:36.196Z,21.10
2022-09-30T03:35:47.277Z,17.60
2022-09-30T03:38:56.559Z,19.60
2022-09-30T03:41:42.997Z,21.80
2022-09-30T03:44:33.856Z,23.90
2022-09-30T03:47:18.542Z,17.20
2022-09-30T03:50:01.316Z,19.90
2022-09-30T03:52:36.096Z,19.20
2022-09-30T03:55:09.982Z,23.30
2022-09-30T03:57:42.096Z,17.40
2022-09-30T04:00:14.900Z,19.30
2022-09-30T04:02:54.610Z,21.90
2022-09-30T04:05:26.597Z,18.30
2022-09-30T04:07:57.799Z,18.80
2022-09-30T04:10:28.128Z,17.70
2022-09-30T04:12:58.319Z,15.50
2022-09-30T04:15:50.663Z,21.00
2022-09-30T04:18:36.728Z,19.80
2022-09-30T04:21:17.280Z,21.90
2022-09-30T04:23:57.141Z,21.20
2022-09-30T04:26:32.840Z,19.60
2022-09-30T04:29:01.879Z,18.40
2022-09-30T04:35:22.139Z,22.30
2022-09-30T04:39:10.820Z,22.10
2022-09-30T04:41:57.139Z,23.70
2022-09-30T04:48:10.979Z,21.70
2022-09-30T04:51:03.740Z,22.90
2022-09-30T04:54:08.448Z,24.70
2022-09-30T04:57:03.640Z,23.10
2022-09-30T05:00:16.520Z,20.60
2022-09-30T05:02:52.098Z,21.40
2022-09-30T05:05:33.739Z,20.80
2022-09-30T05:08:09.555Z,22.60
2022-09-30T05:10:40.678Z,24.60
2022-09-30T05:13:09.819Z,25.70
2022-09-30T05:15:50.684Z,23.20
2022-09-30T05:18:27.719Z,22.60
2022-09-30T05:21:00.319Z,24.50
2022-09-30T05:23:34.059Z,20.70
2022-09-30T05:26:06.593Z,25.50
2022-09-30T05:28:42.158Z,23.60
2022-09-30T05:31:12.592Z,24.70
2022-09-30T05:33:45.618Z,24.60
2022-09-30T05:36:19.980Z,23.90
2022-09-30T05:38:55.139Z,22.50
2022-09-30T05:41:24.962Z,22.30
2022-09-30T05:43:54.499Z,31.50
2022-09-30T05:46:23.622Z,21.00
2022-09-30T05:48:55.203Z,28.50
2022-09-30T05:51:25.059Z,23.60
2022-09-30T05:53:54.058Z,29.90
2022-09-30T05:56:23.341Z,31.40
2022-09-30T05:58:52.739Z,23.10
2022-09-30T06:01:21.678Z,22.50
2022-09-30T06:03:50.660Z,23.20
2022-09-30T06:06:20.498Z,26.50
2022-09-30T06:08:49.799Z,26.80
2022-09-30T06:11:23.798Z,21.80
2022-09-30T06:13:53.019Z,23.20
2022-09-30T06:16:24.351Z,26.00
2022-09-30T06:18:56.198Z,25.20
2022-09-30T06:21:25.362Z,24.00
2022-09-30T06:23:55.119Z,24.90
2022-09-30T06:26:25.458Z,22.90
2022-09-30T06:28:55.238Z,22.40
2022-09-30T06:31:24.362Z,32.90
2022-09-30T06:33:54.522Z,24.80
2022-09-30T06:36:23.880Z,21.40
2022-09-30T06:38:54.839Z,25.90
2022-09-30T06:41:28.302Z,27.70
2022-09-30T06:44:03.444Z,23.40
2022-09-30T06:46:50.731Z,24.60
2022-09-30T06:49:22.488Z,23.50
2022-09-30T06:51:52.196Z,22.10
2022-09-30T06:54:22.480Z,21.50
2022-09-30T06:56:54.189Z,25.20
2022-09-30T06:59:34.199Z,26.70
2022-09-30T07:07:44.302Z,24.90
2022-09-30T07:10:12.890Z,20.90
2022-09-30T07:12:42.821Z,24.80
2022-09-30T07:15:13.883Z,31.10
2022-09-30T07:17:42.768Z,27.30
2022-09-30T07:20:11.421Z,24.90
2022-09-30T07:22:41.761Z,27.50
2022-09-30T07:25:12.187Z,29.40
2022-09-30T07:27:41.685Z,27.40
2022-09-30T07:30:16.282Z,28.60
2022-09-30T07:32:49.292Z,32.40
2022-09-30T07:35:19.637Z,23.80
2022-09-30T07:37:48.204Z,33.40
2022-09-30T07:40:16.915Z,32.50
2022-09-30T07:42:46.227Z,26.60
2022-09-30T07:45:17.335Z,22.00
2022-09-30T07:47:49.679Z,21.20
2022-09-30T07:50:21.968Z,24.20
2022-09-30T07:52:50.670Z,26.30
2022-09-30T07:55:19.366Z,23.00
2022-09-30T07:57:49.065Z,23.00
2022-09-30T08:00:41.248Z,21.10
2022-09-30T08:03:06.257Z,29.00
2022-09-30T08:05:41.627Z,20.10
2022-09-30T08:08:10.338Z,23.10
2022-09-30T08:10:39.328Z,27.90
2022-09-30T08:13:09.395Z,31.40
2022-09-30T08:15:38.337Z,25.90
2022-09-30T08:18:07.145Z,27.40
2022-09-30T08:20:36.215Z,25.80
2022-09-30T08:23:04.817Z,25.10
2022-09-30T08:25:33.704Z,23.60
2022-09-30T08:28:03.274Z,21.20
2022-09-30T08:30:32.087Z,23.10
2022-09-30T08:33:01.065Z,22.20
2022-09-30T08:35:30.583Z,21.30
2022-09-30T08:37:59.185Z,25.80
2022-09-30T08:40:32.167Z,30.50
2022-09-30T08:43:15.518Z,21.90
2022-09-30T08:46:16.266Z,22.20
2022-09-30T08:57:37.369Z,25.20
2022-09-30T09:00:11.597Z,24.10
2022-09-30T09:02:59.916Z,24.90
2022-09-30T09:05:48.582Z,30.20
2022-09-30T09:09:21.511Z,25.30
2022-09-30T09:12:12.697Z,25.80
2022-09-30T09:15:35.665Z,25.30
2022-09-30T09:18:37.727Z,21.90
2022-09-30T09:21:51.906Z,18.40
2022-09-30T09:24:30.866Z,25.50
2022-09-30T09:27:00.118Z,16.60
2022-09-30T09:29:40.670Z,25.40
2022-09-30T09:32:17.885Z,23.60
2022-09-30T09:34:58.306Z,24.10
2022-09-30T09:38:18.507Z,27.20
2022-09-30T09:41:30.208Z,21.10
2022-09-30T09:44:32.991Z,24.50
2022-09-30T09:47:20.173Z,23.00
2022-09-30T09:49:59.741Z,19.70
2022-09-30T09:53:05.736Z,18.80
2022-09-30T09:55:35.527Z,18.30
2022-09-30T09:58:17.679Z,20.30
2022-09-30T10:00:47.811Z,21.40
2022-09-30T10:03:25.597Z,22.20
2022-09-30T10:06:09.503Z,22.10
2022-09-30T10:08:56.108Z,21.40
2022-09-30T10:11:27.895Z,22.00
2022-09-30T10:14:01.767Z,22.20
2022-09-30T10:16:37.416Z,24.50
2022-09-30T10:19:26.078Z,20.60
2022-09-30T10:22:15.093Z,21.80
2022-09-30T10:24:43.918Z,19.90
2022-09-30T10:27:32.467Z,20.00
2022-09-30T10:30:01.258Z,15.40
2022-09-30T10:32:31.046Z,20.70
2022-09-30T10:35:16.554Z,14.60
2022-09-30T10:37:53.835Z,19.00
2022-09-30T10:40:30.478Z,19.10
2022-09-30T10:43:00.021Z,20.20
2022-09-30T10:45:38.966Z,19.80
2022-09-30T10:48:18.596Z,21.50
2022-09-30T10:50:57.057Z,17.40
2022-09-30T10:53:30.138Z,19.40
2022-09-30T10:55:59.836Z,13.30
2022-09-30T10:58:45.753Z,18.00
2022-09-30T11:01:40.359Z,17.10
2022-09-30T11:04:51.096Z,19.90
2022-09-30T11:07:32.035Z,21.00
2022-09-30T11:10:14.869Z,17.00
2022-09-30T11:12:56.355Z,16.70
2022-09-30T11:16:01.870Z,19.80
2022-09-30T11:18:44.836Z,18.90
2022-09-30T11:22:01.732Z,18.60
2022-09-30T11:24:44.475Z,19.00
2022-09-30T11:27:48.173Z,20.20
2022-09-30T11:30:20.097Z,20.60
2022-09-30T11:33:04.365Z,18.60
2022-09-30T11:35:59.589Z,17.30
2022-09-30T11:38:56.634Z,14.70
2022-09-30T11:41:43.958Z,16.90
2022-09-30T11:44:24.632Z,9.60
2022-09-30T11:47:23.824Z,17.10
2022-09-30T11:50:35.428Z,12.60
2022-09-30T11:53:31.868Z,16.00
2022-09-30T11:56:25.311Z,15.60
2022-09-30T11:59:01.074Z,16.90
2022-09-30T12:01:42.679Z,13.70
2022-09-30T12:04:36.348Z,19.70
2022-09-30T12:07:17.816Z,14.40
2022-09-30T12:10:06.071Z,12.00
2022-09-30T12:12:35.296Z,13.50
2022-09-30T12:15:07.896Z,11.90
2022-09-30T12:17:51.289Z,14.60
2022-09-30T12:20:33.691Z,10.80
2022-09-30T12:23:35.136Z,12.80
2022-09-30T12:26:05.269Z,10.10
2022-09-30T12:29:21.758Z,7.70
2022-09-30T12:32:29.067Z,9.40
2022-09-30T12:35:38.389Z,10.60
2022-09-30T12:38:44.048Z,10.00
2022-09-30T12:41:45.195Z,12.40
2022-09-30T12:44:49.735Z,10.00
2022-09-30T12:47:46.278Z,14.70
2022-09-30T12:50:24.877Z,11.20
2022-09-30T12:52:53.767Z,12.00
2022-09-30T12:55:41.849Z,11.00
2022-09-30T12:58:31.487Z,9.80
2022-09-30T13:01:16.226Z,10.60
2022-09-30T13:04:05.029Z,10.40
2022-09-30T13:06:54.476Z,10.60
2022-09-30T13:09:32.109Z,9.40
2022-09-30T13:12:00.555Z,12.30
2022-09-30T13:14:46.653Z,10.30
2022-09-30T13:17:18.327Z,10.20
2022-09-30T13:19:55.036Z,8.90
2022-09-30T13:22:32.384Z,10.20
2022-09-30T13:25:01.159Z,10.60
2022-09-30T13:27:55.784Z,10.40
2022-09-30T13:30:27.382Z,9.80
2022-09-30T13:32:59.894Z,10.70
2022-09-30T13:35:51.628Z,11.60
2022-09-30T13:38:33.826Z,7.60
2022-09-30T13:41:21.668Z,10.00
2022-09-30T13:44:07.348Z,8.30
2022-09-30T13:46:57.848Z,9.80
2022-09-30T13:49:37.187Z,7.70
2022-09-30T13:52:16.797Z,8.30
2022-09-30T13:54:49.216Z,9.40
2022-09-30T13:57:32.848Z,10.00
2022-09-30T14:00:19.206Z,9.50
2022-09-30T14:03:07.987Z,7.60
2022-09-30T14:06:05.137Z,9.60
2022-09-30T14:09:02.427Z,7.80
2022-09-30T14:12:19.628Z,7.00
2022-09-30T14:15:35.751Z,8.30
2022-09-30T14:18:28.887Z,8.00
2022-09-30T14:21:31.371Z,8.00
2022-09-30T14:24:04.486Z,8.50
2022-09-30T14:27:18.015Z,9.30
2022-09-30T14:30:10.586Z,7.00
2022-09-30T14:32:50.794Z,9.50
2022-09-30T14:35:24.820Z,6.50
2022-09-30T14:38:17.654Z,6.30
2022-09-30T14:40:56.698Z,6.40
2022-09-30T14:43:40.305Z,7.60
2022-09-30T14:46:39.106Z,9.10
2022-09-30T14:49:16.803Z,7.60
2022-09-30T14:51:49.103Z,7.70
2022-09-30T14:54:29.418Z,7.60
2022-09-30T14:57:01.885Z,6.60
2022-09-30T14:59:34.922Z,6.40
2022-09-30T15:02:23.559Z,6.80
2022-09-30T15:04:58.106Z,7.50
2022-09-30T15:07:30.590Z,6.50
2022-09-30T15:10:03.346Z,7.00
2022-09-30T15:12:38.385Z,7.30
2022-09-30T15:15:28.396Z,7.40
2022-09-30T15:17:57.356Z,11.00
2022-09-30T15:20:34.747Z,7.50
2022-09-30T15:23:16.226Z,6.90
2022-09-30T15:25:46.433Z,7.60
2022-09-30T15:28:17.542Z,6.80
2022-09-30T15:30:46.499Z,6.10
2022-09-30T15:33:20.144Z,6.70
2022-09-30T15:35:48.976Z,6.10
2022-09-30T15:38:25.456Z,7.80
2022-09-30T15:41:14.308Z,6.50
2022-09-30T15:43:52.135Z,8.50
2022-09-30T15:46:49.507Z,7.00
2022-09-30T15:49:55.736Z,7.50
2022-09-30T15:52:40.476Z,6.50
2022-09-30T15:55:59.358Z,9.70
2022-09-30T15:58:42.908Z,6.70
2022-09-30T16:01:25.544Z,6.90
2022-09-30T16:04:00.489Z,8.70
2022-09-30T16:06:43.168Z,5.50
2022-09-30T16:09:20.967Z,6.30
2022-09-30T16:12:14.551Z,6.50
2022-09-30T16:15:16.114Z,7.10
2022-09-30T16:17:50.468Z,8.00
2022-09-30T16:20:27.555Z,12.20
2022-09-30T16:22:59.656Z,7.50
2022-09-30T16:25:34.032Z,8.60
2022-09-30T16:28:15.171Z,7.70
2022-09-30T16:30:52.447Z,8.70
2022-09-30T16:33:23.779Z,10.30
2022-09-30T16:35:53.147Z,6.70
2022-09-30T16:38:22.629Z,9.70
2022-09-30T16:40:56.284Z,11.20
2022-09-30T16:43:27.696Z,8.70
2022-09-30T16:46:00.760Z,7.00
2022-09-30T16:48:32.065Z,8.70
2022-09-30T16:51:17.467Z,8.90
2022-09-30T16:53:48.387Z,9.10
2022-09-30T16:56:20.602Z,9.30
2022-09-30T16:58:49.367Z,11.00
2022-09-30T17:01:26.600Z,8.50
2022-09-30T17:03:57.546Z,8.30
2022-09-30T17:06:29.937Z,9.90
2022-09-30T17:09:01.517Z,9.80
2022-09-30T17:11:33.610Z,8.70
2022-09-30T17:14:05.683Z,10.90
2022-09-30T17:16:36.834Z,8.80
2022-09-30T17:19:05.788Z,9.80
2022-09-30T17:21:36.827Z,12.90
2022-09-30T17:24:09.674Z,11.00
2022-09-30T17:26:39.408Z,10.60
2022-09-30T17:29:30.868Z,11.50
2022-09-30T17:31:57.778Z,14.70
2022-09-30T17:34:28.435Z,9.50
2022-09-30T17:36:57.892Z,12.70
2022-09-30T17:39:28.461Z,12.80
2022-09-30T17:42:16.285Z,19.20
2022-09-30T17:44:45.053Z,11.80
2022-09-30T17:47:13.671Z,19.00
2022-09-30T17:49:43.575Z,17.20
2022-09-30T17:52:15.484Z,17.50
2022-09-30T17:54:47.511Z,16.50
2022-09-30T17:57:22.636Z,22.00
2022-09-30T17:59:51.596Z,19.00
2022-09-30T18:02:21.723Z,22.40
2022-09-30T18:04:52.536Z,22.10
2022-09-30T18:07:24.226Z,17.30
2022-09-30T18:09:53.417Z,17.90
2022-09-30T18:12:23.979Z,21.80
2022-09-30T18:14:55.417Z,23.00
2022-09-30T18:17:25.832Z,21.60
2022-09-30T18:19:54.645Z,23.70
2022-09-30T18:22:24.475Z,20.40
2022-09-30T18:25:12.011Z,25.10
2022-09-30T18:27:41.771Z,15.90
2022-09-30T18:30:15.875Z,15.70
2022-09-30T18:32:50.147Z,19.10
2022-09-30T18:35:21.856Z,19.70
2022-09-30T18:37:53.765Z,19.10
2022-09-30T18:40:26.475Z,26.00
2022-09-30T18:42:58.906Z,19.70
2022-09-30T18:45:33.299Z,21.70
2022-09-30T18:48:03.127Z,19.10
2022-09-30T18:50:33.267Z,22.40
2022-09-30T18:53:09.129Z,20.10
2022-09-30T18:55:44.769Z,23.40
2022-09-30T18:58:16.962Z,25.30
2022-09-30T19:00:48.581Z,28.50
2022-09-30T19:03:18.207Z,25.30
2022-09-30T19:05:51.664Z,25.40
2022-09-30T19:08:20.707Z,28.40
2022-09-30T19:10:58.196Z,25.90
2022-09-30T19:13:30.375Z,26.80
2022-09-30T19:16:09.260Z,24.60
2022-09-30T19:18:42.426Z,25.90
2022-09-30T19:21:20.575Z,23.80
2022-09-30T19:23:50.156Z,22.80
2022-09-30T19:26:23.067Z,21.70
2022-09-30T19:28:52.886Z,22.80
2022-09-30T19:31:23.310Z,21.40
2022-09-30T19:33:57.616Z,22.40
2022-09-30T19:36:27.494Z,22.70
2022-09-30T19:39:10.421Z,22.90
2022-09-30T19:41:40.709Z,18.80
2022-09-30T19:44:11.245Z,21.10
2022-09-30T19:46:41.826Z,22.90
2022-09-30T19:49:11.826Z,23.70
2022-09-30T19:51:41.316Z,26.00
2022-09-30T19:54:11.426Z,23.30
2022-09-30T19:56:42.093Z,23.60
2022-09-30T19:59:12.527Z,24.20
2022-09-30T20:01:51.724Z,22.50
2022-09-30T20:04:24.538Z,23.80
2022-09-30T20:06:54.515Z,21.60
2022-09-30T20:09:24.798Z,26.30
2022-09-30T20:11:53.384Z,24.30
2022-09-30T20:14:41.026Z,21.80
2022-09-30T20:17:09.918Z,26.20
2022-09-30T20:19:42.077Z,20.80
2022-09-30T20:22:11.885Z,24.40
2022-09-30T20:24:40.681Z,21.80
2022-09-30T20:27:10.089Z,23.90
2022-09-30T20:29:38.906Z,23.50
2022-09-30T20:32:07.709Z,24.00
2022-09-30T20:34:38.927Z,22.70
2022-09-30T20:37:09.648Z,24.70
2022-09-30T20:39:41.110Z,26.60
2022-09-30T20:42:09.881Z,26.80
2022-09-30T20:44:38.585Z,26.80
2022-09-30T20:47:07.356Z,21.50
2022-09-30T20:49:36.168Z,23.60
2022-09-30T20:52:06.895Z,27.20
2022-09-30T20:54:36.307Z,25.70
2022-09-30T20:57:07.580Z,30.10
2022-09-30T20:59:37.445Z,26.20
2022-09-30T21:02:07.591Z,24.90
2022-09-30T21:04:36.045Z,22.90
2022-09-30T21:07:04.747Z,25.60
2022-09-30T21:09:35.195Z,24.20
2022-09-30T21:12:04.269Z,26.90
2022-09-30T21:14:32.946Z,28.90
2022-09-30T21:17:02.036Z,26.90
2022-09-30T21:19:30.826Z,29.40
2022-09-30T21:22:00.127Z,24.80
2022-09-30T21:24:29.648Z,24.50
2022-09-30T21:26:58.214Z,23.10
2022-09-30T21:29:27.576Z,28.10
2022-09-30T21:31:56.037Z,26.20
2022-09-30T21:34:25.934Z,28.90
2022-09-30T21:36:54.406Z,23.70
2022-09-30T21:39:22.990Z,29.40
2022-09-30T21:41:51.466Z,25.00
2022-09-30T21:44:20.169Z,22.90
2022-09-30T21:46:50.686Z,24.70
2022-09-30T21:49:24.805Z,22.90
2022-09-30T21:51:53.855Z,21.70
2022-09-30T21:54:23.756Z,24.10
2022-09-30T21:56:52.606Z,24.00
2022-09-30T21:59:54.105Z,22.20
2022-09-30T22:02:59.385Z,25.80
2022-09-30T22:06:03.469Z,22.40
2022-09-30T22:09:52.165Z,24.00
2022-09-30T22:12:22.565Z,22.10
2022-09-30T22:20:11.427Z,23.30
2022-09-30T22:23:33.855Z,22.30
2022-09-30T22:27:05.056Z,20.30
2022-09-30T22:34:01.595Z,15.60
2022-09-30T22:37:02.800Z,21.30
2022-09-30T22:40:30.624Z,20.30
2022-09-30T22:43:32.847Z,19.80
2022-09-30T22:46:39.895Z,21.60
2022-09-30T22:49:41.974Z,21.20
2022-09-30T22:52:47.041Z,25.50
2022-09-30T22:55:49.146Z,21.90
2022-09-30T22:58:53.018Z,20.60
2022-09-30T23:01:54.021Z,23.90
2022-09-30T23:04:32.851Z,23.20
2022-09-30T23:07:33.977Z,22.80
2022-09-30T23:10:12.321Z,20.90
2022-09-30T23:17:20.650Z,23.60
2022-09-30T23:23:28.035Z,24.10
2022-09-30T23:30:45.715Z,21.80
2022-09-30T23:34:15.008Z,23.90
2022-09-30T23:37:20.862Z,25.40
2022-09-30T23:41:09.885Z,24.20
2022-09-30T23:44:34.882Z,24.00
2022-09-30T23:54:53.852Z,24.30
2022-09-30T23:57:56.231Z,23.50
